createdAt,value
2023-12-20T00:00:22.908Z,0.00
2023-12-20T00:01:22.939Z,0.00
2023-12-20T00:02:22.894Z,0.00
2023-12-20T00:03:22.858Z,0.00
2023-12-20T00:04:22.922Z,0.00
2023-12-20T00:05:23.117Z,0.00
2023-12-20T00:06:22.847Z,0.00
2023-12-20T00:07:22.865Z,0.00
2023-12-20T00:08:22.788Z,0.00
2023-12-20T00:09:22.878Z,0.00
2023-12-20T00:10:22.860Z,0.00
2023-12-20T00:11:22.763Z,0.00
2023-12-20T00:12:22.740Z,0.00
2023-12-20T00:13:22.777Z,0.00
2023-12-20T00:14:22.735Z,0.00
2023-12-20T00:15:22.735Z,0.00
2023-12-20T00:16:22.760Z,0.00
2023-12-20T00:17:22.688Z,0.00
2023-12-20T00:18:22.656Z,0.00
2023-12-20T00:19:22.740Z,0.00
2023-12-20T00:20:22.774Z,0.00
2023-12-20T00:21:22.617Z,0.00
2023-12-20T00:22:22.644Z,0.00
2023-12-20T00:23:22.636Z,0.00
2023-12-20T00:24:22.612Z,0.00
2023-12-20T00:25:22.621Z,0.00
2023-12-20T00:26:22.565Z,0.00
2023-12-20T00:27:22.541Z,0.00
2023-12-20T00:28:22.595Z,0.00
2023-12-20T00:29:22.560Z,0.00
2023-12-20T00:30:22.561Z,0.00
2023-12-20T00:31:22.564Z,0.00
2023-12-20T00:32:22.520Z,0.00
2023-12-20T00:33:22.594Z,0.00
2023-12-20T00:34:22.513Z,0.00
2023-12-20T00:35:22.497Z,0.00
2023-12-20T00:36:22.494Z,0.00
2023-12-20T00:37:22.491Z,0.00
2023-12-20T00:38:22.470Z,0.00
2023-12-20T00:39:22.479Z,0.00
2023-12-20T00:40:22.502Z,0.00
2023-12-20T00:41:22.344Z,0.00
2023-12-20T00:42:22.390Z,0.00
2023-12-20T00:43:22.374Z,0.00
2023-12-20T00:44:23.025Z,0.00
2023-12-20T00:45:22.363Z,0.00
2023-12-20T00:46:22.398Z,0.00
2023-12-20T00:47:22.319Z,0.00
2023-12-20T00:48:22.375Z,0.00
2023-12-20T00:49:22.406Z,0.00
2023-12-20T00:50:22.332Z,0.00
2023-12-20T00:51:22.217Z,0.00
2023-12-20T00:52:22.241Z,0.00
2023-12-20T00:53:22.195Z,0.00
2023-12-20T00:54:22.183Z,0.00
2023-12-20T00:55:22.239Z,0.00
2023-12-20T00:56:22.155Z,0.00
2023-12-20T00:57:22.159Z,0.00
2023-12-20T00:58:22.238Z,0.00
2023-12-20T00:59:22.104Z,0.00
2023-12-20T01:00:22.110Z,0.00
2023-12-20T01:01:22.144Z,0.00
2023-12-20T01:02:22.402Z,0.00
2023-12-20T01:03:22.124Z,0.00
2023-12-20T01:04:22.204Z,0.00
2023-12-20T01:05:22.099Z,0.00
2023-12-20T01:06:22.031Z,0.00
2023-12-20T01:07:22.125Z,0.00
2023-12-20T01:08:21.999Z,0.00
2023-12-20T01:09:21.987Z,0.00
2023-12-20T01:10:22.065Z,0.00
2023-12-20T01:11:21.965Z,0.00
2023-12-20T01:12:21.951Z,0.00
2023-12-20T01:13:22.632Z,0.00
2023-12-20T01:14:21.956Z,0.00
2023-12-20T01:15:21.910Z,0.00
2023-12-20T01:16:21.965Z,0.00
2023-12-20T01:17:21.868Z,0.00
2023-12-20T01:18:21.915Z,0.00
2023-12-20T01:19:21.926Z,0.00
2023-12-20T01:20:21.943Z,0.00
2023-12-20T01:21:21.821Z,0.00
2023-12-20T01:22:21.886Z,0.00
2023-12-20T01:23:21.833Z,0.00
2023-12-20T01:24:21.792Z,0.00
2023-12-20T01:25:21.941Z,0.00
2023-12-20T01:26:21.762Z,0.00
2023-12-20T01:27:21.741Z,0.00
2023-12-20T01:28:21.783Z,0.00
2023-12-20T01:29:21.725Z,0.00
2023-12-20T01:30:21.730Z,0.00
2023-12-20T01:31:21.778Z,0.00
2023-12-20T01:32:21.686Z,0.00
2023-12-20T01:33:21.667Z,0.00
2023-12-20T01:34:21.761Z,0.00
2023-12-20T01:35:21.678Z,0.00
2023-12-20T01:36:21.646Z,0.00
2023-12-20T01:37:21.718Z,0.00
2023-12-20T01:38:21.602Z,0.00
2023-12-20T01:39:27.916Z,0.00
2023-12-20T01:40:22.693Z,0.00
2023-12-20T01:41:21.604Z,0.00
2023-12-20T01:42:21.577Z,0.00
2023-12-20T01:43:21.575Z,0.00
2023-12-20T01:44:21.619Z,0.00
2023-12-20T01:45:21.525Z,0.00
2023-12-20T01:46:21.679Z,0.00
2023-12-20T01:47:21.519Z,0.00
2023-12-20T01:48:21.526Z,0.00
2023-12-20T01:49:21.611Z,0.00
2023-12-20T01:50:21.464Z,0.00
2023-12-20T01:51:21.426Z,0.00
2023-12-20T01:52:21.496Z,0.00
2023-12-20T01:53:21.405Z,0.00
2023-12-20T01:54:21.411Z,0.00
2023-12-20T01:55:21.477Z,0.00
2023-12-20T01:56:21.392Z,0.00
2023-12-20T01:57:21.371Z,0.00
2023-12-20T01:58:21.408Z,0.00
2023-12-20T01:59:21.320Z,0.00
2023-12-20T02:00:21.353Z,0.00
2023-12-20T02:01:21.424Z,0.00
2023-12-20T02:02:21.296Z,0.00
2023-12-20T02:03:21.310Z,0.00
2023-12-20T02:04:21.436Z,0.00
2023-12-20T02:05:21.241Z,0.00
2023-12-20T02:06:21.264Z,0.00
2023-12-20T02:07:21.358Z,0.00
2023-12-20T02:08:21.206Z,0.00
2023-12-20T02:09:21.184Z,0.00
2023-12-20T02:10:21.320Z,0.00
2023-12-20T02:11:21.184Z,0.00
2023-12-20T02:12:21.214Z,0.00
2023-12-20T02:13:21.274Z,0.00
2023-12-20T02:14:21.130Z,0.00
2023-12-20T02:15:21.119Z,0.00
2023-12-20T02:16:21.206Z,0.00
2023-12-20T02:17:21.153Z,0.00
2023-12-20T02:18:21.180Z,0.00
2023-12-20T02:19:21.162Z,0.00
2023-12-20T02:20:21.079Z,0.00
2023-12-20T02:21:21.096Z,0.00
2023-12-20T02:22:21.131Z,0.00
2023-12-20T02:23:21.009Z,0.00
2023-12-20T02:24:21.000Z,0.00
2023-12-20T02:25:21.154Z,0.00
2023-12-20T02:26:20.999Z,0.00
2023-12-20T02:27:20.961Z,0.00
2023-12-20T02:28:21.007Z,0.00
2023-12-20T02:29:20.960Z,0.00
2023-12-20T02:30:20.961Z,0.00
2023-12-20T02:31:20.972Z,0.00
2023-12-20T02:32:20.889Z,0.00
2023-12-20T02:33:20.867Z,0.00
2023-12-20T02:34:20.990Z,0.00
2023-12-20T02:35:20.901Z,0.00
2023-12-20T02:36:20.828Z,0.00
2023-12-20T02:37:20.845Z,0.00
2023-12-20T02:38:20.820Z,0.00
2023-12-20T02:39:20.797Z,0.00
2023-12-20T02:40:20.936Z,0.00
2023-12-20T02:41:20.780Z,0.00
2023-12-20T02:42:20.754Z,0.00
2023-12-20T02:43:20.838Z,0.00
2023-12-20T02:44:20.763Z,0.00
2023-12-20T02:45:20.712Z,0.00
2023-12-20T02:46:20.711Z,0.00
2023-12-20T02:47:20.734Z,0.00
2023-12-20T02:48:20.724Z,0.00
2023-12-20T02:49:20.748Z,0.00
2023-12-20T02:50:20.648Z,0.00
2023-12-20T02:51:20.678Z,0.00
2023-12-20T02:52:20.729Z,0.00
2023-12-20T02:53:20.615Z,0.00
2023-12-20T02:54:20.613Z,0.00
2023-12-20T02:55:20.770Z,0.00
2023-12-20T02:56:20.576Z,0.00
2023-12-20T02:57:20.561Z,0.00
2023-12-20T02:58:20.569Z,0.00
2023-12-20T02:59:20.520Z,0.00
2023-12-20T03:00:20.506Z,0.00
2023-12-20T03:01:20.579Z,0.00
2023-12-20T03:02:20.493Z,0.00
2023-12-20T03:03:20.481Z,0.00
2023-12-20T03:04:20.556Z,0.00
2023-12-20T03:05:20.567Z,0.00
2023-12-20T03:06:20.557Z,0.00
2023-12-20T03:07:20.531Z,0.00
2023-12-20T03:08:20.435Z,0.00
2023-12-20T03:09:20.386Z,0.00
2023-12-20T03:10:26.621Z,0.00
2023-12-20T03:11:21.417Z,0.00
2023-12-20T03:12:20.356Z,0.00
2023-12-20T03:13:20.393Z,0.00
2023-12-20T03:14:20.354Z,0.00
2023-12-20T03:15:20.322Z,0.00
2023-12-20T03:16:20.335Z,0.00
2023-12-20T03:17:20.270Z,0.00
2023-12-20T03:18:20.314Z,0.00
2023-12-20T03:19:20.439Z,0.00
2023-12-20T03:20:20.289Z,0.00
2023-12-20T03:21:20.247Z,0.00
2023-12-20T03:22:20.242Z,0.00
2023-12-20T03:23:20.214Z,0.00
2023-12-20T03:24:20.261Z,0.00
2023-12-20T03:25:20.253Z,0.00
2023-12-20T03:26:20.179Z,0.00
2023-12-20T03:27:20.177Z,0.00
2023-12-20T03:28:20.156Z,0.00
2023-12-20T03:29:20.133Z,0.00
2023-12-20T03:30:20.181Z,0.00
2023-12-20T03:31:20.175Z,0.00
2023-12-20T03:32:20.126Z,0.00
2023-12-20T03:33:20.081Z,0.00
2023-12-20T03:34:20.184Z,0.00
2023-12-20T03:35:20.040Z,0.00
2023-12-20T03:36:20.039Z,0.00
2023-12-20T03:37:20.043Z,0.00
2023-12-20T03:38:20.059Z,0.00
2023-12-20T03:39:20.069Z,0.00
2023-12-20T03:40:20.000Z,0.00
2023-12-20T03:41:19.974Z,0.00
2023-12-20T03:42:19.962Z,0.00
2023-12-20T03:43:19.989Z,0.00
2023-12-20T03:44:19.996Z,0.00
2023-12-20T03:45:19.917Z,0.00
2023-12-20T03:46:19.954Z,0.00
2023-12-20T03:47:19.889Z,0.00
2023-12-20T03:48:19.937Z,0.00
2023-12-20T03:49:19.925Z,0.00
2023-12-20T03:50:19.932Z,0.00
2023-12-20T03:51:19.842Z,0.00
2023-12-20T03:52:19.882Z,0.00
2023-12-20T03:53:19.834Z,0.00
2023-12-20T03:54:19.828Z,0.00
2023-12-20T03:55:19.910Z,0.00
2023-12-20T03:56:19.779Z,0.00
2023-12-20T03:57:19.792Z,0.00
2023-12-20T03:58:19.784Z,0.00
2023-12-20T03:59:19.745Z,0.00
2023-12-20T04:00:19.728Z,0.00
2023-12-20T04:01:19.837Z,0.00
2023-12-20T04:02:19.734Z,0.00
2023-12-20T04:03:19.695Z,0.00
2023-12-20T04:04:19.840Z,0.00
2023-12-20T04:05:19.848Z,0.00
2023-12-20T04:06:19.767Z,0.00
2023-12-20T04:07:19.748Z,0.00
2023-12-20T04:08:19.615Z,0.00
2023-12-20T04:09:19.619Z,0.00
2023-12-20T04:10:19.672Z,0.00
2023-12-20T04:11:19.625Z,0.00
2023-12-20T04:12:19.605Z,0.00
2023-12-20T04:13:19.705Z,0.00
2023-12-20T04:14:19.566Z,0.00
2023-12-20T04:15:19.536Z,0.00
2023-12-20T04:16:19.582Z,0.00
2023-12-20T04:17:19.515Z,0.00
2023-12-20T04:18:19.537Z,0.00
2023-12-20T04:19:19.552Z,0.00
2023-12-20T04:20:19.676Z,0.00
2023-12-20T04:21:19.498Z,0.00
2023-12-20T04:22:19.523Z,0.00
2023-12-20T04:23:19.435Z,0.00
2023-12-20T04:24:19.424Z,0.00
2023-12-20T04:25:19.490Z,0.00
2023-12-20T04:26:19.405Z,0.00
2023-12-20T04:27:19.433Z,0.00
2023-12-20T04:28:19.389Z,0.00
2023-12-20T04:29:19.358Z,0.00
2023-12-20T04:30:19.394Z,0.00
2023-12-20T04:31:19.408Z,0.00
2023-12-20T04:32:19.311Z,0.00
2023-12-20T04:33:19.386Z,0.00
2023-12-20T04:34:19.361Z,0.00
2023-12-20T04:35:19.362Z,0.00
2023-12-20T04:36:19.263Z,0.00
2023-12-20T04:37:19.327Z,0.00
2023-12-20T04:38:19.227Z,0.00
2023-12-20T04:39:19.228Z,0.00
2023-12-20T04:40:19.230Z,0.00
2023-12-20T04:41:19.210Z,0.00
2023-12-20T04:42:19.186Z,0.00
2023-12-20T04:43:19.268Z,0.00
2023-12-20T04:44:19.166Z,0.00
2023-12-20T04:45:19.152Z,0.00
2023-12-20T04:46:19.198Z,0.00
2023-12-20T04:47:19.168Z,0.00
2023-12-20T04:48:19.196Z,0.00
2023-12-20T04:49:19.294Z,0.00
2023-12-20T04:50:19.229Z,0.00
2023-12-20T04:51:19.071Z,0.00
2023-12-20T04:52:19.142Z,0.00
2023-12-20T04:53:19.053Z,0.00
2023-12-20T04:54:19.034Z,0.00
2023-12-20T04:55:19.065Z,0.00
2023-12-20T04:56:18.999Z,0.00
2023-12-20T04:57:19.010Z,0.00
2023-12-20T04:58:19.024Z,0.00
2023-12-20T04:59:18.958Z,0.00
2023-12-20T05:00:18.995Z,0.00
2023-12-20T05:01:19.047Z,0.00
2023-12-20T05:02:18.946Z,0.00
2023-12-20T05:03:18.933Z,0.00
2023-12-20T05:04:19.037Z,0.00
2023-12-20T05:05:18.990Z,0.00
2023-12-20T05:06:18.870Z,0.00
2023-12-20T05:07:18.949Z,0.00
2023-12-20T05:08:18.961Z,0.00
2023-12-20T05:09:18.882Z,0.00
2023-12-20T05:10:18.906Z,0.00
2023-12-20T05:11:18.812Z,0.00
2023-12-20T05:12:18.845Z,0.00
2023-12-20T05:13:18.971Z,0.00
2023-12-20T05:14:18.774Z,0.00
2023-12-20T05:15:18.754Z,0.00
2023-12-20T05:16:19.072Z,0.00
2023-12-20T05:17:18.728Z,0.00
2023-12-20T05:18:18.764Z,0.00
2023-12-20T05:19:18.766Z,0.00
2023-12-20T05:20:18.730Z,0.00
2023-12-20T05:21:18.688Z,0.00
2023-12-20T05:22:18.764Z,0.00
2023-12-20T05:23:18.676Z,0.00
2023-12-20T05:24:18.647Z,0.00
2023-12-20T05:25:18.683Z,0.00
2023-12-20T05:26:18.616Z,0.00
2023-12-20T05:27:18.592Z,0.00
2023-12-20T05:28:18.650Z,0.00
2023-12-20T05:29:18.595Z,0.00
2023-12-20T05:30:18.626Z,0.00
2023-12-20T05:31:18.655Z,0.00
2023-12-20T05:32:18.531Z,0.00
2023-12-20T05:33:18.580Z,0.00
2023-12-20T05:34:18.601Z,0.00
2023-12-20T05:35:18.632Z,0.00
2023-12-20T05:36:18.484Z,0.00
2023-12-20T05:37:18.515Z,0.00
2023-12-20T05:38:18.471Z,0.00
2023-12-20T05:39:18.462Z,0.00
2023-12-20T05:40:18.492Z,0.00
2023-12-20T05:41:18.433Z,0.00
2023-12-20T05:42:18.400Z,0.00
2023-12-20T05:43:18.492Z,0.00
2023-12-20T05:44:18.390Z,0.00
2023-12-20T05:45:18.379Z,0.00
2023-12-20T05:46:18.409Z,0.00
2023-12-20T05:47:18.331Z,0.00
2023-12-20T05:48:18.433Z,0.00
2023-12-20T05:49:18.394Z,0.00
2023-12-20T05:50:18.319Z,0.00
2023-12-20T05:51:18.301Z,0.00
2023-12-20T05:52:18.324Z,0.00
2023-12-20T05:53:18.287Z,0.00
2023-12-20T05:54:18.258Z,0.00
2023-12-20T05:55:18.262Z,0.00
2023-12-20T05:56:18.234Z,0.00
2023-12-20T05:57:18.214Z,0.00
2023-12-20T05:58:18.204Z,0.00
2023-12-20T05:59:18.202Z,0.00
2023-12-20T06:00:18.168Z,0.00
2023-12-20T06:01:18.446Z,0.00
2023-12-20T06:02:18.172Z,0.00
2023-12-20T06:03:18.143Z,0.00
2023-12-20T06:04:18.609Z,0.00
2023-12-20T06:05:18.182Z,0.00
2023-12-20T06:06:18.149Z,0.00
2023-12-20T06:07:18.189Z,0.00
2023-12-20T06:08:18.068Z,0.00
2023-12-20T06:09:18.063Z,0.00
2023-12-20T06:10:18.167Z,0.00
2023-12-20T06:11:18.035Z,0.00
2023-12-20T06:12:18.035Z,0.00
2023-12-20T06:13:18.069Z,0.00
2023-12-20T06:14:17.998Z,0.00
2023-12-20T06:15:18.035Z,0.00
2023-12-20T06:16:18.027Z,0.00
2023-12-20T06:17:17.976Z,0.00
2023-12-20T06:18:17.992Z,0.00
2023-12-20T06:19:17.972Z,0.00
2023-12-20T06:20:18.022Z,0.00
2023-12-20T06:21:17.909Z,0.00
2023-12-20T06:22:17.952Z,0.00
2023-12-20T06:23:21.721Z,0.00
2023-12-20T06:24:17.850Z,0.00
2023-12-20T06:25:17.897Z,0.00
2023-12-20T06:26:17.852Z,0.00
2023-12-20T06:27:17.881Z,0.00
2023-12-20T06:28:17.840Z,0.00
2023-12-20T06:29:17.856Z,0.00
2023-12-20T06:30:17.846Z,0.00
2023-12-20T06:31:17.858Z,0.00
2023-12-20T06:32:17.759Z,0.00
2023-12-20T06:33:17.819Z,0.00
2023-12-20T06:34:17.785Z,0.00
2023-12-20T06:35:17.791Z,0.00
2023-12-20T06:36:17.701Z,0.00
2023-12-20T06:37:17.744Z,4.00
2023-12-20T06:38:17.682Z,4.00
2023-12-20T06:39:17.681Z,0.00
2023-12-20T06:40:18.899Z,4.00
2023-12-20T06:41:17.656Z,4.00
2023-12-20T06:42:17.631Z,4.00
2023-12-20T06:43:26.730Z,4.00
2023-12-20T06:44:18.703Z,8.00
2023-12-20T06:45:17.582Z,8.00
2023-12-20T06:46:17.656Z,8.00
2023-12-20T06:47:17.569Z,4.00
2023-12-20T06:48:17.554Z,8.00
2023-12-20T06:49:17.609Z,4.00
2023-12-20T06:50:17.515Z,4.00
2023-12-20T06:51:17.507Z,12.00
2023-12-20T06:52:17.503Z,12.00
2023-12-20T06:53:17.716Z,12.00
2023-12-20T06:54:17.471Z,16.00
2023-12-20T06:55:17.512Z,16.00
2023-12-20T06:56:19.327Z,24.00
2023-12-20T06:57:17.438Z,28.00
2023-12-20T06:58:17.436Z,36.00
2023-12-20T06:59:17.404Z,44.00
2023-12-20T07:00:17.384Z,52.00
2023-12-20T07:01:17.562Z,56.00
2023-12-20T07:02:17.380Z,64.00
2023-12-20T07:03:17.384Z,72.00
2023-12-20T07:04:17.378Z,80.00
2023-12-20T07:05:17.369Z,88.00
2023-12-20T07:06:17.343Z,100.00
2023-12-20T07:07:17.364Z,104.00
2023-12-20T07:08:17.323Z,112.00
2023-12-20T07:09:17.278Z,124.00
2023-12-20T07:10:17.326Z,132.00
2023-12-20T07:11:17.248Z,144.00
2023-12-20T07:12:17.254Z,152.00
2023-12-20T07:13:17.261Z,160.00
2023-12-20T07:14:17.208Z,164.00
2023-12-20T07:15:17.201Z,152.00
2023-12-20T07:16:17.205Z,152.00
2023-12-20T07:17:17.296Z,152.00
2023-12-20T07:18:17.181Z,144.00
2023-12-20T07:19:17.159Z,136.00
2023-12-20T07:20:17.237Z,148.00
2023-12-20T07:21:17.169Z,184.00
2023-12-20T07:22:17.124Z,224.00
2023-12-20T07:23:17.111Z,264.00
2023-12-20T07:24:17.070Z,288.00
2023-12-20T07:25:17.161Z,304.00
2023-12-20T07:26:17.088Z,320.00
2023-12-20T07:27:17.058Z,344.00
2023-12-20T07:28:17.029Z,368.00
2023-12-20T07:29:17.066Z,408.00
2023-12-20T07:30:17.044Z,452.00
2023-12-20T07:31:17.060Z,496.00
2023-12-20T07:32:16.992Z,540.00
2023-12-20T07:33:17.029Z,584.00
2023-12-20T07:34:17.090Z,620.00
2023-12-20T07:35:17.232Z,652.00
2023-12-20T07:36:17.159Z,684.00
2023-12-20T07:37:16.948Z,704.00
2023-12-20T07:38:16.894Z,720.00
2023-12-20T07:39:16.915Z,752.00
2023-12-20T07:40:16.900Z,788.00
2023-12-20T07:41:16.873Z,824.00
2023-12-20T07:42:16.841Z,848.00
2023-12-20T07:43:16.841Z,856.00
2023-12-20T07:44:16.900Z,864.00
2023-12-20T07:45:16.808Z,888.00
2023-12-20T07:46:17.023Z,916.00
2023-12-20T07:47:16.833Z,928.00
2023-12-20T07:48:16.832Z,928.00
2023-12-20T07:49:16.799Z,920.00
2023-12-20T07:50:16.842Z,908.00
2023-12-20T07:51:16.743Z,896.00
2023-12-20T07:52:16.806Z,868.00
2023-12-20T07:53:16.715Z,852.00
2023-12-20T07:54:16.727Z,844.00
2023-12-20T07:55:16.897Z,848.00
2023-12-20T07:56:16.681Z,848.00
2023-12-20T07:57:16.683Z,916.00
2023-12-20T07:58:16.706Z,936.00
2023-12-20T07:59:25.423Z,852.00
2023-12-20T08:00:17.602Z,836.00
2023-12-20T08:01:16.662Z,844.00
2023-12-20T08:02:16.588Z,704.00
2023-12-20T08:03:16.629Z,600.00
2023-12-20T08:04:16.708Z,584.00
2023-12-20T08:05:17.976Z,716.00
2023-12-20T08:06:16.562Z,660.00
2023-12-20T08:07:16.576Z,724.00
2023-12-20T08:08:16.528Z,932.00
2023-12-20T08:09:16.514Z,728.00
2023-12-20T08:10:16.559Z,520.00
2023-12-20T08:11:16.509Z,584.00
2023-12-20T08:12:16.473Z,628.00
2023-12-20T08:13:16.474Z,664.00
2023-12-20T08:14:16.445Z,740.00
2023-12-20T08:15:16.448Z,816.00
2023-12-20T08:16:16.444Z,872.00
2023-12-20T08:17:16.411Z,940.00
2023-12-20T08:18:16.410Z,988.00
2023-12-20T08:19:16.474Z,1028.00
2023-12-20T08:20:22.942Z,1072.00
2023-12-20T08:21:17.371Z,1168.00
2023-12-20T08:22:16.360Z,1280.00
2023-12-20T08:23:16.363Z,1400.00
2023-12-20T08:24:16.294Z,1368.00
2023-12-20T08:25:16.320Z,1400.00
2023-12-20T08:26:16.277Z,1396.00
2023-12-20T08:27:16.287Z,1444.00
2023-12-20T08:28:16.280Z,1732.00
2023-12-20T08:29:16.248Z,3712.00
2023-12-20T08:30:16.273Z,5956.00
2023-12-20T08:31:16.320Z,1832.00
2023-12-20T08:32:16.211Z,6472.00
2023-12-20T08:33:16.236Z,5220.00
2023-12-20T08:34:16.631Z,2872.00
2023-12-20T08:35:16.202Z,3004.00
2023-12-20T08:36:16.154Z,1900.00
2023-12-20T08:37:16.197Z,1512.00
2023-12-20T08:38:16.111Z,1236.00
2023-12-20T08:39:16.102Z,1240.00
2023-12-20T08:40:16.131Z,1264.00
2023-12-20T08:41:16.068Z,1324.00
2023-12-20T08:42:16.105Z,1412.00
2023-12-20T08:43:16.062Z,1608.00
2023-12-20T08:44:16.059Z,1872.00
2023-12-20T08:45:16.035Z,2456.00
2023-12-20T08:46:16.186Z,3452.00
2023-12-20T08:47:16.019Z,6564.00
2023-12-20T08:48:16.067Z,7220.00
2023-12-20T08:49:16.092Z,7668.00
2023-12-20T08:50:16.037Z,9884.00
2023-12-20T08:51:15.942Z,2360.00
2023-12-20T08:52:15.954Z,2168.00
2023-12-20T08:53:15.930Z,2292.00
2023-12-20T08:54:15.916Z,2396.00
2023-12-20T08:55:15.974Z,2208.00
2023-12-20T08:56:15.873Z,1660.00
2023-12-20T08:57:15.863Z,1152.00
2023-12-20T08:58:15.904Z,804.00
2023-12-20T08:59:15.831Z,668.00
2023-12-20T09:00:15.860Z,528.00
2023-12-20T09:01:15.918Z,448.00
2023-12-20T09:02:15.825Z,396.00
2023-12-20T09:03:15.802Z,384.00
2023-12-20T09:04:15.904Z,412.00
2023-12-20T09:05:15.984Z,476.00
2023-12-20T09:06:15.856Z,508.00
2023-12-20T09:07:15.850Z,556.00
2023-12-20T09:08:15.724Z,640.00
2023-12-20T09:09:19.590Z,856.00
2023-12-20T09:10:16.830Z,996.00
2023-12-20T09:11:15.715Z,1196.00
2023-12-20T09:12:15.672Z,1376.00
2023-12-20T09:13:15.708Z,1268.00
2023-12-20T09:14:15.700Z,1368.00
2023-12-20T09:15:15.620Z,1584.00
2023-12-20T09:16:15.661Z,1724.00
2023-12-20T09:17:15.603Z,2452.00
2023-12-20T09:18:15.652Z,2396.00
2023-12-20T09:19:15.632Z,1624.00
2023-12-20T09:20:15.728Z,3468.00
2023-12-20T09:21:15.562Z,1988.00
2023-12-20T09:22:15.630Z,1644.00
2023-12-20T09:23:15.517Z,956.00
2023-12-20T09:24:15.525Z,1452.00
2023-12-20T09:25:15.554Z,2252.00
2023-12-20T09:26:15.500Z,12288.00
2023-12-20T09:27:15.499Z,16544.00
2023-12-20T09:28:15.506Z,16064.00
2023-12-20T09:29:15.463Z,19008.00
2023-12-20T09:30:25.864Z,18432.00
2023-12-20T09:31:16.444Z,16640.00
2023-12-20T09:32:15.404Z,13088.00
2023-12-20T09:33:15.505Z,12928.00
2023-12-20T09:34:15.555Z,13728.00
2023-12-20T09:35:15.734Z,16320.00
2023-12-20T09:36:16.131Z,17952.00
2023-12-20T09:37:15.469Z,19232.00
2023-12-20T09:38:15.378Z,19360.00
2023-12-20T09:39:15.327Z,13248.00
2023-12-20T09:40:15.456Z,2100.00
2023-12-20T09:41:15.288Z,3256.00
2023-12-20T09:42:15.278Z,12992.00
2023-12-20T09:43:15.272Z,17024.00
2023-12-20T09:44:15.253Z,17664.00
2023-12-20T09:45:15.284Z,16672.00
2023-12-20T09:46:15.277Z,16640.00
2023-12-20T09:47:15.240Z,13536.00
2023-12-20T09:48:15.264Z,11368.00
2023-12-20T09:49:15.245Z,13280.00
2023-12-20T09:50:15.431Z,14432.00
2023-12-20T09:51:15.161Z,16928.00
2023-12-20T09:52:15.231Z,15744.00
2023-12-20T09:53:15.134Z,13152.00
2023-12-20T09:54:15.130Z,12152.00
2023-12-20T09:55:15.115Z,11732.00
2023-12-20T09:56:15.104Z,13536.00
2023-12-20T09:57:15.082Z,14848.00
2023-12-20T09:58:15.091Z,11520.00
2023-12-20T09:59:15.068Z,5016.00
2023-12-20T10:00:15.028Z,1808.00
2023-12-20T10:01:15.121Z,1264.00
2023-12-20T10:02:15.054Z,1136.00
2023-12-20T10:03:15.969Z,1156.00
2023-12-20T10:04:26.383Z,1240.00
2023-12-20T10:05:16.025Z,2496.00
2023-12-20T10:06:15.167Z,1868.00
2023-12-20T10:07:15.028Z,4004.00
2023-12-20T10:08:15.000Z,3764.00
2023-12-20T10:09:14.915Z,3340.00
2023-12-20T10:10:15.067Z,3456.00
2023-12-20T10:11:14.892Z,2024.00
2023-12-20T10:12:14.881Z,2052.00
2023-12-20T10:13:15.128Z,3296.00
2023-12-20T10:14:15.423Z,2028.00
2023-12-20T10:15:14.841Z,2528.00
2023-12-20T10:16:14.866Z,3084.00
2023-12-20T10:17:14.825Z,3120.00
2023-12-20T10:18:14.900Z,3240.00
2023-12-20T10:19:14.835Z,2904.00
2023-12-20T10:20:14.852Z,2936.00
2023-12-20T10:21:14.755Z,2736.00
2023-12-20T10:22:14.798Z,2908.00
2023-12-20T10:23:14.778Z,3068.00
2023-12-20T10:24:14.711Z,3132.00
2023-12-20T10:25:14.723Z,2976.00
2023-12-20T10:26:14.812Z,3064.00
2023-12-20T10:27:14.687Z,3128.00
2023-12-20T10:28:15.068Z,2152.00
2023-12-20T10:29:14.672Z,2952.00
2023-12-20T10:30:14.767Z,2768.00
2023-12-20T10:31:14.779Z,2664.00
2023-12-20T10:32:14.646Z,2540.00
2023-12-20T10:33:14.675Z,2452.00
2023-12-20T10:34:14.701Z,2440.00
2023-12-20T10:35:14.702Z,2372.00
2023-12-20T10:36:14.844Z,2420.00
2023-12-20T10:37:14.601Z,2372.00
2023-12-20T10:38:14.844Z,2216.00
2023-12-20T10:39:14.523Z,2352.00
2023-12-20T10:40:14.757Z,2304.00
2023-12-20T10:41:14.522Z,2260.00
2023-12-20T10:42:14.479Z,2260.00
2023-12-20T10:43:14.555Z,2240.00
2023-12-20T10:44:14.488Z,2208.00
2023-12-20T10:45:14.459Z,2204.00
2023-12-20T10:46:14.469Z,2156.00
2023-12-20T10:47:14.426Z,2152.00
2023-12-20T10:48:14.569Z,2124.00
2023-12-20T10:49:14.426Z,2096.00
2023-12-20T10:50:14.526Z,2064.00
2023-12-20T10:51:14.358Z,2052.00
2023-12-20T10:52:14.409Z,2108.00
2023-12-20T10:53:14.361Z,2172.00
2023-12-20T10:54:14.354Z,2252.00
2023-12-20T10:55:14.382Z,2316.00
2023-12-20T10:56:14.301Z,2424.00
2023-12-20T10:57:14.289Z,2128.00
2023-12-20T10:58:14.426Z,2140.00
2023-12-20T10:59:14.267Z,2672.00
2023-12-20T11:00:14.286Z,2592.00
2023-12-20T11:01:14.276Z,1936.00
2023-12-20T11:02:14.318Z,1932.00
2023-12-20T11:03:14.204Z,2108.00
2023-12-20T11:04:14.289Z,2304.00
2023-12-20T11:05:14.271Z,2152.00
2023-12-20T11:06:14.202Z,2016.00
2023-12-20T11:07:14.205Z,1620.00
2023-12-20T11:08:14.190Z,1816.00
2023-12-20T11:09:14.228Z,1776.00
2023-12-20T11:10:14.154Z,1740.00
2023-12-20T11:11:14.105Z,1688.00
2023-12-20T11:12:14.098Z,1696.00
2023-12-20T11:13:14.129Z,1696.00
2023-12-20T11:14:14.070Z,1728.00
2023-12-20T11:15:14.060Z,1716.00
2023-12-20T11:16:14.084Z,1752.00
2023-12-20T11:17:14.067Z,1756.00
2023-12-20T11:18:14.052Z,1484.00
2023-12-20T11:19:14.018Z,1868.00
2023-12-20T11:20:14.126Z,1896.00
2023-12-20T11:21:13.971Z,1984.00
2023-12-20T11:22:13.984Z,1920.00
2023-12-20T11:23:13.964Z,1820.00
2023-12-20T11:24:13.952Z,1740.00
2023-12-20T11:25:14.195Z,1796.00
2023-12-20T11:26:13.921Z,1856.00
2023-12-20T11:27:13.926Z,1892.00
2023-12-20T11:28:13.926Z,1912.00
2023-12-20T11:29:13.881Z,1924.00
2023-12-20T11:30:13.872Z,1876.00
2023-12-20T11:31:13.980Z,1884.00
2023-12-20T11:32:13.837Z,2004.00
2023-12-20T11:33:13.821Z,2052.00
2023-12-20T11:34:13.878Z,2140.00
2023-12-20T11:35:13.887Z,2196.00
2023-12-20T11:36:13.803Z,2260.00
2023-12-20T11:37:13.826Z,2228.00
2023-12-20T11:38:13.756Z,2276.00
2023-12-20T11:39:14.230Z,2148.00
2023-12-20T11:40:13.736Z,1932.00
2023-12-20T11:41:13.708Z,2152.00
2023-12-20T11:42:13.696Z,2156.00
2023-12-20T11:43:13.756Z,2104.00
2023-12-20T11:44:13.700Z,1824.00
2023-12-20T11:45:13.662Z,1696.00
2023-12-20T11:46:13.715Z,1768.00
2023-12-20T11:47:14.335Z,1592.00
2023-12-20T11:48:13.708Z,1468.00
2023-12-20T11:49:13.750Z,1396.00
2023-12-20T11:50:13.703Z,1328.00
2023-12-20T11:51:13.730Z,1260.00
2023-12-20T11:52:13.594Z,1252.00
2023-12-20T11:53:13.555Z,1220.00
2023-12-20T11:54:13.587Z,1160.00
2023-12-20T11:55:13.574Z,1156.00
2023-12-20T11:56:13.812Z,1136.00
2023-12-20T11:57:13.476Z,1164.00
2023-12-20T11:58:13.508Z,1284.00
2023-12-20T11:59:22.604Z,1432.00
2023-12-20T12:00:14.469Z,1432.00
2023-12-20T12:01:13.578Z,1424.00
2023-12-20T12:02:13.456Z,1448.00
2023-12-20T12:03:13.416Z,1236.00
2023-12-20T12:04:13.519Z,1212.00
2023-12-20T12:05:13.552Z,1132.00
2023-12-20T12:06:13.419Z,1224.00
2023-12-20T12:07:13.382Z,1240.00
2023-12-20T12:08:14.863Z,1056.00
2023-12-20T12:09:13.339Z,1000.00
2023-12-20T12:10:13.374Z,856.00
2023-12-20T12:11:13.302Z,788.00
2023-12-20T12:12:14.578Z,760.00
2023-12-20T12:13:13.324Z,756.00
2023-12-20T12:14:13.261Z,724.00
2023-12-20T12:15:13.269Z,676.00
2023-12-20T12:16:13.288Z,632.00
2023-12-20T12:17:13.247Z,624.00
2023-12-20T12:18:13.253Z,640.00
2023-12-20T12:19:13.235Z,652.00
2023-12-20T12:20:13.382Z,668.00
2023-12-20T12:21:18.812Z,708.00
2023-12-20T12:22:15.991Z,764.00
2023-12-20T12:23:13.147Z,804.00
2023-12-20T12:24:13.140Z,844.00
2023-12-20T12:25:13.258Z,856.00
2023-12-20T12:26:13.147Z,868.00
2023-12-20T12:27:13.125Z,868.00
2023-12-20T12:28:13.147Z,888.00
2023-12-20T12:29:13.070Z,912.00
2023-12-20T12:30:13.080Z,948.00
2023-12-20T12:31:13.112Z,1012.00
2023-12-20T12:32:13.148Z,1020.00
2023-12-20T12:33:13.211Z,1104.00
2023-12-20T12:34:13.181Z,1120.00
2023-12-20T12:35:13.028Z,1232.00
2023-12-20T12:36:12.996Z,1324.00
2023-12-20T12:37:12.985Z,1380.00
2023-12-20T12:38:12.980Z,1360.00
2023-12-20T12:39:12.955Z,1340.00
2023-12-20T12:40:12.968Z,1304.00
2023-12-20T12:41:12.940Z,1272.00
2023-12-20T12:42:12.897Z,1232.00
2023-12-20T12:43:12.983Z,1192.00
2023-12-20T12:44:17.692Z,1184.00
2023-12-20T12:45:13.879Z,1184.00
2023-12-20T12:46:12.890Z,1196.00